createdAt,value
2019-01-17T00:01:11.576Z,99630.84
2019-01-17T00:03:57.803Z,99638.52
2019-01-17T00:06:33.904Z,99633.11
2019-01-17T00:09:04.047Z,99635.70
2019-01-17T00:11:36.523Z,99635.17
2019-01-17T00:14:09.657Z,99640.03
2019-01-17T00:16:42.664Z,99640.86
2019-01-17T00:19:15.807Z,99636.14
2019-01-17T00:22:02.274Z,99634.94
2019-01-17T00:24:48.545Z,99623.39
2019-01-17T00:27:24.342Z,99637.30
2019-01-17T00:30:10.363Z,99633.00
2019-01-17T00:32:42.885Z,99633.98
2019-01-17T00:35:22.097Z,99628.24
2019-01-17T00:38:08.591Z,99630.34
2019-01-17T00:40:50.517Z,99629.49
2019-01-17T00:43:23.321Z,99624.05
2019-01-17T00:45:53.383Z,99628.81
2019-01-17T00:48:29.183Z,99622.23
2019-01-17T00:50:59.231Z,99624.91
2019-01-17T00:53:38.238Z,99616.98
2019-01-17T00:56:24.953Z,99606.09
2019-01-17T00:59:13.116Z,99606.16
2019-01-17T01:01:55.164Z,99603.08
2019-01-17T01:04:41.505Z,99598.16
2019-01-17T01:07:29.829Z,99590.91
2019-01-17T01:10:15.168Z,99592.30
2019-01-17T01:12:45.215Z,99585.72
2019-01-17T01:15:33.795Z,99590.98
2019-01-17T01:18:06.662Z,99590.54
2019-01-17T01:20:39.601Z,99594.94
2019-01-17T01:23:09.705Z,99596.73
2019-01-17T01:25:39.772Z,99607.31
2019-01-17T01:28:12.584Z,99598.26
2019-01-17T01:30:42.663Z,99599.89
2019-01-17T01:33:28.618Z,99595.05
2019-01-17T01:35:58.662Z,99598.11
2019-01-17T01:38:28.869Z,99595.09
2019-01-17T01:41:01.782Z,99593.08
2019-01-17T01:43:34.961Z,99599.77
2019-01-17T01:46:20.480Z,99593.02
2019-01-17T01:48:50.513Z,99593.98
2019-01-17T01:51:29.962Z,99597.10
2019-01-17T01:53:58.385Z,99593.84
2019-01-17T01:56:26.823Z,99590.09
2019-01-17T01:58:55.261Z,99590.73
2019-01-17T02:01:23.668Z,99584.09
2019-01-17T02:03:52.085Z,99583.08
2019-01-17T02:06:20.543Z,99584.67
2019-01-17T02:08:48.958Z,99583.11
2019-01-17T02:11:17.417Z,99585.12
2019-01-17T02:13:46.048Z,99594.81
2019-01-17T02:16:14.467Z,99583.36
2019-01-17T02:18:42.883Z,99581.34
2019-01-17T02:21:11.379Z,99582.20
2019-01-17T02:23:39.931Z,99581.53
2019-01-17T02:26:08.340Z,99570.81
2019-01-17T02:28:36.775Z,99569.11
2019-01-17T02:31:05.325Z,99570.47
2019-01-17T02:33:33.717Z,99569.78
2019-01-17T02:36:02.253Z,99571.50
2019-01-17T02:38:30.665Z,99564.58
2019-01-17T02:40:59.077Z,99563.22
2019-01-17T02:43:27.641Z,99565.06
2019-01-17T02:45:56.068Z,99560.35
2019-01-17T02:48:24.484Z,99569.22
2019-01-17T02:50:53.069Z,99569.30
2019-01-17T02:53:21.474Z,99563.44
2019-01-17T02:55:49.895Z,99566.77
2019-01-17T02:58:18.300Z,99557.06
2019-01-17T03:00:46.799Z,99542.76
2019-01-17T03:03:15.205Z,99545.39
2019-01-17T03:05:43.649Z,99550.80
2019-01-17T03:08:12.093Z,99544.97
2019-01-17T03:10:40.587Z,99541.89
2019-01-17T03:13:09.035Z,99533.98
2019-01-17T03:15:37.534Z,99531.25
2019-01-17T03:18:06.055Z,99528.16
2019-01-17T03:20:34.483Z,99530.23
2019-01-17T03:23:02.960Z,99526.29
2019-01-17T03:25:31.388Z,99524.48
2019-01-17T03:27:59.793Z,99529.06
2019-01-17T03:30:46.436Z,99525.20
2019-01-17T03:33:14.873Z,99518.53
2019-01-17T03:35:43.309Z,99514.98
2019-01-17T03:38:11.721Z,99514.73
2019-01-17T03:40:40.169Z,99507.08
2019-01-17T03:43:08.613Z,99511.20
2019-01-17T03:45:37.032Z,99510.95
2019-01-17T03:48:05.533Z,99499.90
2019-01-17T03:50:34.030Z,99502.88
2019-01-17T03:53:02.417Z,99493.31
2019-01-17T03:55:30.832Z,99500.32
2019-01-17T03:57:59.251Z,99505.70
2019-01-17T04:00:27.674Z,99504.94
2019-01-17T04:02:56.103Z,99501.81
2019-01-17T04:05:24.614Z,99501.47
2019-01-17T04:07:53.041Z,99496.86
2019-01-17T04:10:21.523Z,99500.67
2019-01-17T04:12:50.059Z,99488.64
2019-01-17T04:15:18.491Z,99495.88
2019-01-17T04:17:46.881Z,99499.12
2019-01-17T04:20:16.440Z,99491.56
2019-01-17T04:22:44.906Z,99483.41
2019-01-17T04:25:13.377Z,99488.33
2019-01-17T04:27:41.961Z,99479.34
2019-01-17T04:30:13.187Z,99491.02
2019-01-17T04:32:41.601Z,99476.05
2019-01-17T04:35:10.261Z,99486.12
2019-01-17T04:37:38.667Z,99481.89
2019-01-17T04:40:10.043Z,99476.70
2019-01-17T04:42:38.462Z,99479.00
2019-01-17T04:45:09.231Z,99476.16
2019-01-17T04:47:37.763Z,99474.33
2019-01-17T04:50:09.321Z,99471.09
2019-01-17T04:52:37.778Z,99474.98
2019-01-17T04:55:08.083Z,99468.37
2019-01-17T04:57:36.569Z,99464.21
2019-01-17T05:00:11.173Z,99467.97
2019-01-17T05:02:39.631Z,99467.82
2019-01-17T05:05:08.383Z,99462.89
2019-01-17T05:07:36.832Z,99466.94
2019-01-17T05:10:07.980Z,99466.05
2019-01-17T05:12:36.506Z,99464.23
2019-01-17T05:15:06.471Z,99463.72
2019-01-17T05:17:34.961Z,99463.33
2019-01-17T05:20:04.291Z,99461.58
2019-01-17T05:22:32.694Z,99459.41
2019-01-17T05:25:01.083Z,99458.45
2019-01-17T05:27:29.607Z,99458.25
2019-01-17T05:29:58.084Z,99457.55
2019-01-17T05:32:26.535Z,99461.01
2019-01-17T05:34:54.927Z,99457.31
2019-01-17T05:37:23.320Z,99459.80
2019-01-17T05:39:51.859Z,99458.03
2019-01-17T05:42:20.275Z,99458.72
2019-01-17T05:44:48.757Z,99454.16
2019-01-17T05:47:17.399Z,99446.80
2019-01-17T05:49:45.810Z,99450.13
2019-01-17T05:52:14.230Z,99444.43
2019-01-17T05:54:42.743Z,99443.54
2019-01-17T05:57:11.331Z,99452.50
2019-01-17T05:59:39.737Z,99448.69
2019-01-17T06:02:08.295Z,99441.19
2019-01-17T06:04:36.787Z,99444.14
2019-01-17T06:07:05.330Z,99447.75
2019-01-17T06:09:33.777Z,99442.83
2019-01-17T06:12:02.263Z,99444.57
2019-01-17T06:14:30.721Z,99442.44
2019-01-17T06:16:59.279Z,99443.65
2019-01-17T06:19:27.748Z,99442.22
2019-01-17T06:21:56.353Z,99438.92
2019-01-17T06:24:24.747Z,99437.55
2019-01-17T06:26:53.320Z,99436.32
2019-01-17T06:29:21.750Z,99438.88
2019-01-17T06:31:50.254Z,99434.77
2019-01-17T06:34:18.765Z,99430.63
2019-01-17T06:36:47.185Z,99433.55
2019-01-17T06:39:15.664Z,99429.66
2019-01-17T06:41:44.192Z,99428.91
2019-01-17T06:44:12.745Z,99431.23
2019-01-17T06:46:41.875Z,99424.92
2019-01-17T06:49:10.284Z,99425.91
2019-01-17T06:51:38.803Z,99426.80
2019-01-17T06:54:07.247Z,99422.52
2019-01-17T06:56:35.767Z,99425.84
2019-01-17T06:59:04.390Z,99435.66
2019-01-17T07:01:32.846Z,99424.59
2019-01-17T07:04:01.253Z,99422.75
2019-01-17T07:06:29.819Z,99424.39
2019-01-17T07:08:58.267Z,99426.05
2019-01-17T07:11:26.743Z,99423.30
2019-01-17T07:13:55.255Z,99426.67
2019-01-17T07:16:23.695Z,99421.57
2019-01-17T07:18:52.259Z,99420.80
2019-01-17T07:21:20.700Z,99420.15
2019-01-17T07:23:49.257Z,99419.97
2019-01-17T07:26:17.733Z,99425.84
2019-01-17T07:28:46.236Z,99416.85
2019-01-17T07:31:14.743Z,99419.33
2019-01-17T07:33:43.209Z,99422.03
2019-01-17T07:36:11.773Z,99427.67
2019-01-17T07:38:40.242Z,99424.73
2019-01-17T07:41:08.871Z,99426.61
2019-01-17T07:43:37.289Z,99432.31
2019-01-17T07:46:05.849Z,99434.97
2019-01-17T07:48:34.303Z,99434.95
2019-01-17T07:51:02.761Z,99442.51
2019-01-17T07:53:31.191Z,99436.38
2019-01-17T07:55:59.596Z,99434.23
2019-01-17T07:58:28.044Z,99429.08
2019-01-17T08:00:56.480Z,99422.86
2019-01-17T08:03:24.936Z,99427.45
2019-01-17T08:05:53.407Z,99425.02
2019-01-17T08:08:21.833Z,99430.57
2019-01-17T08:10:50.239Z,99430.02
2019-01-17T08:13:18.769Z,99428.68
2019-01-17T08:15:47.289Z,99421.89
2019-01-17T08:18:18.766Z,99429.73
2019-01-17T08:20:45.949Z,99435.78
2019-01-17T08:23:14.594Z,99432.14
2019-01-17T08:25:43.019Z,99434.41
2019-01-17T08:28:11.523Z,99426.06
2019-01-17T08:30:39.997Z,99428.42
2019-01-17T08:33:08.590Z,99425.16
2019-01-17T08:35:37.022Z,99428.56
2019-01-17T08:38:05.614Z,99417.77
2019-01-17T08:40:34.103Z,99422.19
2019-01-17T08:43:02.680Z,99433.00
2019-01-17T08:45:31.095Z,99433.14
2019-01-17T08:47:59.681Z,99439.30
2019-01-17T08:50:28.339Z,99439.13
2019-01-17T08:52:56.830Z,99443.70
2019-01-17T08:55:25.395Z,99446.66
2019-01-17T08:57:53.805Z,99443.77
2019-01-17T09:00:24.589Z,99450.70
2019-01-17T09:02:53.035Z,99454.14
2019-01-17T09:05:21.676Z,99445.83
2019-01-17T09:07:50.231Z,99454.63
2019-01-17T09:10:21.105Z,99450.06
2019-01-17T09:12:50.081Z,99446.40
2019-01-17T09:15:21.417Z,99456.88
2019-01-17T09:17:49.935Z,99449.32
2019-01-17T09:20:18.509Z,99453.91
2019-01-17T09:22:46.939Z,99454.09
2019-01-17T09:25:16.891Z,99452.01
2019-01-17T09:27:45.432Z,99456.89
2019-01-17T09:30:21.526Z,99459.77
2019-01-17T09:32:50.015Z,99462.58
2019-01-17T09:35:19.308Z,99458.34
2019-01-17T09:37:48.210Z,99457.55
2019-01-17T09:40:22.086Z,99464.16
2019-01-17T09:42:50.712Z,99473.69
2019-01-17T09:45:19.353Z,99480.13
2019-01-17T09:47:48.203Z,99475.67
2019-01-17T09:50:21.687Z,99474.59
2019-01-17T09:52:50.363Z,99475.28
2019-01-17T09:55:18.954Z,99480.34
2019-01-17T09:57:47.465Z,99489.28
2019-01-17T10:00:21.844Z,99479.58
2019-01-17T10:02:50.417Z,99484.23
2019-01-17T10:05:19.073Z,99491.57
2019-01-17T10:07:47.797Z,99492.77
2019-01-17T10:10:21.395Z,99496.89
2019-01-17T10:12:50.035Z,99495.84
2019-01-17T10:15:24.149Z,99488.63
2019-01-17T10:18:04.168Z,99489.97
2019-01-17T10:20:44.584Z,99484.42
2019-01-17T10:23:30.905Z,99484.03
2019-01-17T10:26:04.937Z,99477.86
2019-01-17T10:28:51.337Z,99483.25
2019-01-17T10:31:28.628Z,99477.48
2019-01-17T10:34:09.175Z,99489.34
2019-01-17T10:36:49.581Z,99465.07
2019-01-17T10:39:32.895Z,99476.94
2019-01-17T10:42:13.495Z,99474.31
2019-01-17T10:44:53.686Z,99473.49
2019-01-17T10:47:27.737Z,99482.41
2019-01-17T10:50:02.008Z,99496.28
2019-01-17T10:52:42.633Z,99480.20
2019-01-17T10:55:38.381Z,99481.58
2019-01-17T10:58:24.597Z,99480.02
2019-01-17T11:01:04.905Z,99481.24
2019-01-17T11:03:55.877Z,99470.75
2019-01-17T11:06:36.130Z,99468.30
2019-01-17T11:09:32.086Z,99468.91
2019-01-17T11:12:03.599Z,99451.08
2019-01-17T11:14:44.431Z,99459.14
2019-01-17T11:17:31.186Z,99470.01
2019-01-17T11:20:18.983Z,99466.03
2019-01-17T11:23:08.602Z,99457.12
2019-01-17T11:25:59.687Z,99458.17
2019-01-17T11:28:36.734Z,99432.14
2019-01-17T11:31:17.147Z,99432.88
2019-01-17T11:33:54.295Z,99437.09
2019-01-17T11:36:25.867Z,99419.72
2019-01-17T11:39:17.429Z,99422.39
2019-01-17T11:42:05.621Z,99428.20
2019-01-17T11:44:54.965Z,99427.23
2019-01-17T11:47:38.973Z,99422.53
2019-01-17T11:50:13.183Z,99419.50
2019-01-17T11:52:56.329Z,99419.73
2019-01-17T11:55:33.781Z,99414.70
2019-01-17T11:58:23.368Z,99422.39
2019-01-17T12:01:09.854Z,99418.61
2019-01-17T12:03:58.691Z,99419.24
2019-01-17T12:06:27.146Z,99421.23
2019-01-17T12:08:55.549Z,99424.22
2019-01-17T12:11:23.992Z,99419.10
2019-01-17T12:13:52.424Z,99418.27
2019-01-17T12:16:20.835Z,99425.86
2019-01-17T12:18:49.268Z,99415.11
2019-01-17T12:21:17.664Z,99408.49
2019-01-17T12:23:46.224Z,99410.00
2019-01-17T12:26:14.654Z,99407.67
2019-01-17T12:28:43.065Z,99401.75
2019-01-17T12:31:11.590Z,99396.77
2019-01-17T12:33:39.981Z,99394.44
2019-01-17T12:36:08.427Z,99395.77
2019-01-17T12:38:36.837Z,99388.78
2019-01-17T12:41:05.355Z,99395.04
2019-01-17T12:43:33.751Z,99401.80
2019-01-17T12:46:02.292Z,99406.73
2019-01-17T12:48:30.691Z,99410.09
2019-01-17T12:50:59.135Z,99396.66
2019-01-17T12:53:27.582Z,99385.83
2019-01-17T12:55:55.978Z,99394.17
2019-01-17T12:58:24.410Z,99389.50
2019-01-17T13:00:52.837Z,99391.20
2019-01-17T13:03:21.243Z,99387.16
2019-01-17T13:05:49.731Z,99393.80
2019-01-17T13:08:18.166Z,99395.68
2019-01-17T13:10:46.630Z,99407.69
2019-01-17T13:13:15.045Z,99402.95
2019-01-17T13:15:43.647Z,99396.05
2019-01-17T13:18:12.186Z,99389.09
2019-01-17T13:20:40.718Z,99394.27
2019-01-17T13:23:09.107Z,99386.10
2019-01-17T13:25:37.665Z,99397.22
2019-01-17T13:28:06.271Z,99384.44
2019-01-17T13:30:34.957Z,99381.09
2019-01-17T13:33:03.596Z,99388.56
2019-01-17T13:35:32.024Z,99379.62
2019-01-17T13:38:00.439Z,99385.20
2019-01-17T13:40:29.006Z,99376.48
2019-01-17T13:42:57.429Z,99373.66
2019-01-17T13:45:25.829Z,99389.61
2019-01-17T13:47:54.296Z,99371.93
2019-01-17T13:50:22.801Z,99370.23
2019-01-17T13:52:51.253Z,99368.95
2019-01-17T13:55:19.647Z,99383.09
2019-01-17T13:57:48.221Z,99373.55
2019-01-17T14:00:19.679Z,99373.47
2019-01-17T14:02:48.107Z,99376.48
2019-01-17T14:05:16.709Z,99380.98
2019-01-17T14:07:45.889Z,99377.62
2019-01-17T14:10:16.612Z,99379.08
2019-01-17T14:12:45.009Z,99375.13
2019-01-17T14:15:28.535Z,99374.73
2019-01-17T14:17:57.013Z,99390.08
2019-01-17T14:20:25.696Z,99388.56
2019-01-17T14:22:54.161Z,99389.82
2019-01-17T14:25:22.583Z,99395.89
2019-01-17T14:27:51.000Z,99397.50
2019-01-17T14:30:22.151Z,99411.86
2019-01-17T14:32:50.707Z,99413.71
2019-01-17T14:35:19.196Z,99412.67
2019-01-17T14:37:47.616Z,99419.56
2019-01-17T14:40:16.045Z,99416.27
2019-01-17T14:42:44.523Z,99426.70
2019-01-17T14:45:15.901Z,99423.85
2019-01-17T14:47:44.335Z,99426.70
2019-01-17T14:50:18.627Z,99432.27
2019-01-17T14:52:47.049Z,99436.77
2019-01-17T14:55:15.526Z,99441.67
2019-01-17T14:57:44.223Z,99444.91
2019-01-17T15:00:15.745Z,99450.19
2019-01-17T15:02:44.162Z,99455.37
2019-01-17T15:05:13.351Z,99448.23
2019-01-17T15:07:41.930Z,99457.26
2019-01-17T15:10:16.459Z,99455.71
2019-01-17T15:12:44.850Z,99459.75
2019-01-17T15:15:13.325Z,99490.52
2019-01-17T15:17:41.784Z,99506.42
2019-01-17T15:20:16.331Z,99496.32
2019-01-17T15:22:45.966Z,99507.89
2019-01-17T15:25:14.371Z,99511.16
2019-01-17T15:27:42.807Z,99526.05
2019-01-17T15:30:14.398Z,99526.71
2019-01-17T15:32:43.036Z,99526.02
2019-01-17T15:35:11.503Z,99536.17
2019-01-17T15:37:39.914Z,99540.92
2019-01-17T15:40:17.387Z,99552.24
2019-01-17T15:42:45.910Z,99556.92
2019-01-17T15:45:14.383Z,99560.35
2019-01-17T15:47:42.886Z,99565.92
2019-01-17T15:50:14.042Z,99565.08
2019-01-17T15:52:42.679Z,99569.03
2019-01-17T15:55:13.738Z,99571.78
2019-01-17T15:57:42.487Z,99582.29
2019-01-17T16:00:14.155Z,99580.29
2019-01-17T16:02:42.985Z,99584.19
2019-01-17T16:05:11.717Z,99585.64
2019-01-17T16:07:40.195Z,99582.50
2019-01-17T16:10:11.618Z,99597.72
2019-01-17T16:12:40.141Z,99606.09
2019-01-17T16:15:14.198Z,99615.68
2019-01-17T16:17:42.631Z,99622.34
2019-01-17T16:20:13.492Z,99618.39
2019-01-17T16:22:42.081Z,99619.77
2019-01-17T16:25:12.357Z,99628.70
2019-01-17T16:27:41.988Z,99627.19
2019-01-17T16:30:16.484Z,99633.15
2019-01-17T16:32:44.960Z,99647.22
2019-01-17T16:35:13.460Z,99657.27
2019-01-17T16:37:42.197Z,99663.84
2019-01-17T16:40:12.400Z,99662.58
2019-01-17T16:42:40.844Z,99679.45
2019-01-17T16:45:18.307Z,99677.61
2019-01-17T16:47:46.871Z,99678.97
2019-01-17T16:50:21.140Z,99683.09
2019-01-17T16:52:49.580Z,99687.14
2019-01-17T16:55:18.060Z,99687.25
2019-01-17T16:57:49.098Z,99688.30
2019-01-17T17:00:25.563Z,99695.38
2019-01-17T17:02:53.958Z,99701.28
2019-01-17T17:05:22.445Z,99703.47
2019-01-17T17:07:51.074Z,99720.13
2019-01-17T17:10:19.556Z,99721.26
2019-01-17T17:12:47.964Z,99733.27
2019-01-17T17:15:16.510Z,99737.06
2019-01-17T17:17:45.064Z,99746.74
2019-01-17T17:20:19.388Z,99758.20
2019-01-17T17:22:47.831Z,99760.70
2019-01-17T17:25:16.513Z,99770.08
2019-01-17T17:27:45.009Z,99770.43
2019-01-17T17:30:16.208Z,99786.69
2019-01-17T17:32:44.969Z,99789.98
2019-01-17T17:35:13.521Z,99799.75
2019-01-17T17:37:42.053Z,99804.48
2019-01-17T17:40:28.287Z,99810.09
2019-01-17T17:42:56.923Z,99824.63
2019-01-17T17:45:25.430Z,99828.55
2019-01-17T17:47:54.413Z,99828.45
2019-01-17T17:50:23.903Z,99834.83
2019-01-17T17:52:52.432Z,99847.78
2019-01-17T17:55:21.064Z,99845.66
2019-01-17T17:57:50.680Z,99849.70
2019-01-17T18:00:37.747Z,99855.48
2019-01-17T18:03:06.382Z,99862.72
2019-01-17T18:05:35.021Z,99861.34
2019-01-17T18:08:03.740Z,99864.41
2019-01-17T18:10:32.211Z,99874.95
2019-01-17T18:13:00.813Z,99876.63
2019-01-17T18:15:29.401Z,99873.88
2019-01-17T18:17:59.407Z,99871.25
2019-01-17T18:20:27.936Z,99867.36
2019-01-17T18:22:56.538Z,99866.72
2019-01-17T18:25:25.101Z,99857.09
2019-01-17T18:27:53.718Z,99865.92
2019-01-17T18:30:24.469Z,99868.16
2019-01-17T18:32:53.100Z,99868.75
2019-01-17T18:35:22.181Z,99862.90
2019-01-17T18:37:50.878Z,99879.19
2019-01-17T18:40:22.753Z,99872.97
2019-01-17T18:42:51.374Z,99870.50
2019-01-17T18:45:25.225Z,99890.05
2019-01-17T18:47:53.905Z,99895.19
2019-01-17T18:50:30.926Z,99909.80
2019-01-17T18:52:59.612Z,99919.08
2019-01-17T18:55:28.382Z,99935.11
2019-01-17T18:57:57.338Z,99936.59
2019-01-17T19:00:28.854Z,99941.34
2019-01-17T19:02:57.913Z,99945.14
2019-01-17T19:05:26.668Z,99954.48
2019-01-17T19:07:55.902Z,99953.05
2019-01-17T19:10:24.739Z,99944.45
2019-01-17T19:12:53.769Z,99943.86
2019-01-17T19:15:30.260Z,99956.28
2019-01-17T19:17:58.985Z,99954.06
2019-01-17T19:20:27.880Z,99962.34
2019-01-17T19:22:56.557Z,99962.45
2019-01-17T19:25:28.130Z,99964.75
2019-01-17T19:27:56.715Z,99979.31
2019-01-17T19:30:27.632Z,99984.91
2019-01-17T19:32:56.422Z,99987.53
2019-01-17T19:35:25.258Z,99991.47
2019-01-17T19:37:54.080Z,99989.12
2019-01-17T19:40:27.645Z,99984.09
2019-01-17T19:42:56.364Z,100003.34
2019-01-17T19:45:25.113Z,99997.61
2019-01-17T19:47:54.231Z,100005.83
2019-01-17T19:50:31.177Z,100014.89
2019-01-17T19:53:00.016Z,100012.77
2019-01-17T19:55:31.570Z,100022.68
2019-01-17T19:58:00.333Z,100016.94
2019-01-17T20:00:32.592Z,100022.30
2019-01-17T20:03:02.088Z,100024.72
2019-01-17T20:05:32.780Z,100036.29
2019-01-17T20:08:01.414Z,100031.65
2019-01-17T20:10:31.900Z,100030.43
2019-01-17T20:13:00.714Z,100026.87
2019-01-17T20:15:29.539Z,100025.69
2019-01-17T20:17:59.859Z,100033.55
2019-01-17T20:20:31.997Z,100034.36
2019-01-17T20:22:58.993Z,100035.94
2019-01-17T20:25:27.874Z,100034.27
2019-01-17T20:27:58.024Z,100044.58
2019-01-17T20:30:31.199Z,100049.52
2019-01-17T20:33:01.197Z,100057.44
2019-01-17T20:35:32.781Z,100064.53
2019-01-17T20:38:04.493Z,100065.52
2019-01-17T20:40:33.326Z,100073.83
2019-01-17T20:43:03.626Z,100077.00
2019-01-17T20:45:32.274Z,100073.69
2019-01-17T20:48:00.961Z,100073.06
2019-01-17T20:50:31.289Z,100080.10
2019-01-17T20:52:59.993Z,100086.08
2019-01-17T20:55:28.728Z,100080.82
2019-01-17T20:57:57.444Z,100086.70
2019-01-17T21:00:35.445Z,100097.09
2019-01-17T21:03:05.724Z,100102.86
2019-01-17T21:05:34.345Z,100106.00
2019-01-17T21:08:02.931Z,100102.86
2019-01-17T21:10:33.064Z,100109.30
2019-01-17T21:13:03.799Z,100112.61
2019-01-17T21:15:32.733Z,100122.63
2019-01-17T21:18:01.420Z,100123.88
2019-01-17T21:20:29.999Z,100122.70
2019-01-17T21:22:58.652Z,100130.38
2019-01-17T21:25:27.268Z,100136.72
2019-01-17T21:27:55.947Z,100129.52
2019-01-17T21:30:26.837Z,100135.76
2019-01-17T21:32:55.512Z,100136.41
2019-01-17T21:35:24.160Z,100135.97
2019-01-17T21:37:53.893Z,100139.69
2019-01-17T21:40:24.222Z,100142.37
2019-01-17T21:42:52.945Z,100144.95
2019-01-17T21:45:21.589Z,100143.90
2019-01-17T21:47:50.173Z,100148.67
2019-01-17T21:50:21.655Z,100144.78
2019-01-17T21:52:50.219Z,100145.98
2019-01-17T21:55:18.782Z,100140.67
2019-01-17T21:57:47.512Z,100149.42
2019-01-17T22:00:30.672Z,100155.90
2019-01-17T22:02:59.316Z,100153.86
2019-01-17T22:05:31.043Z,100156.55
2019-01-17T22:07:59.519Z,100160.75
2019-01-17T22:10:27.993Z,100165.50
2019-01-17T22:12:56.474Z,100176.45
2019-01-17T22:15:27.156Z,100178.09
2019-01-17T22:17:55.904Z,100188.27
2019-01-17T22:20:24.500Z,100188.37
2019-01-17T22:22:52.988Z,100193.16
2019-01-17T22:25:21.789Z,100188.34
2019-01-17T22:27:52.015Z,100193.12
2019-01-17T22:30:29.370Z,100193.28
2019-01-17T22:32:58.030Z,100196.00
2019-01-17T22:35:26.659Z,100205.27
2019-01-17T22:37:55.199Z,100208.59
2019-01-17T22:40:23.676Z,100205.59
2019-01-17T22:42:52.114Z,100215.72
2019-01-17T22:45:26.263Z,100217.20
2019-01-17T22:47:54.935Z,100223.58
2019-01-17T22:50:23.410Z,100227.74
2019-01-17T22:52:52.186Z,100226.38
2019-01-17T22:55:20.867Z,100232.41
2019-01-17T22:57:49.437Z,100230.13
2019-01-17T23:00:51.728Z,100241.69
2019-01-17T23:03:23.253Z,100238.68
2019-01-17T23:05:51.921Z,100245.89
2019-01-17T23:08:20.363Z,100244.66
2019-01-17T23:10:48.848Z,100249.16
2019-01-17T23:13:17.363Z,100245.03
2019-01-17T23:15:45.831Z,100250.19
2019-01-17T23:18:14.244Z,100247.27
2019-01-17T23:20:42.667Z,100248.91
2019-01-17T23:23:12.164Z,100252.08
2019-01-17T23:25:40.590Z,100249.92
2019-01-17T23:28:09.024Z,100254.58
2019-01-17T23:30:37.576Z,100265.24
2019-01-17T23:33:06.396Z,100265.55
2019-01-17T23:35:34.985Z,100278.86
2019-01-17T23:38:03.476Z,100284.23
2019-01-17T23:40:31.884Z,100294.09
2019-01-17T23:43:00.314Z,100298.48
2019-01-17T23:45:28.880Z,100296.38
2019-01-17T23:47:57.310Z,100301.02
2019-01-17T23:50:25.881Z,100314.90
2019-01-17T23:52:54.471Z,100309.22
2019-01-17T23:55:22.910Z,100312.00
2019-01-17T23:57:51.527Z,100315.83
